createdAt,value
2022-08-21T00:01:47.109Z,7.78
2022-08-21T00:04:22.085Z,13.70
2022-08-21T00:06:50.876Z,6.10
2022-08-21T00:09:19.695Z,7.65
2022-08-21T00:11:48.777Z,9.07
2022-08-21T00:14:17.460Z,9.65
2022-08-21T00:16:46.870Z,10.50
2022-08-21T00:19:14.844Z,8.52
2022-08-21T00:21:44.283Z,10.10
2022-08-21T00:24:13.153Z,6.80
2022-08-21T00:26:41.301Z,8.93
2022-08-21T00:29:09.251Z,10.25
2022-08-21T00:31:37.775Z,11.55
2022-08-21T00:34:07.833Z,6.63
2022-08-21T00:36:36.979Z,9.43
2022-08-21T00:39:06.703Z,10.68
2022-08-21T00:41:38.196Z,7.90
2022-08-21T00:44:07.585Z,7.53
2022-08-21T00:46:36.033Z,6.88
2022-08-21T00:49:04.522Z,7.47
2022-08-21T00:51:39.903Z,12.80
2022-08-21T00:54:12.986Z,10.90
2022-08-21T00:56:47.227Z,7.63
2022-08-21T00:59:17.278Z,13.05
2022-08-21T01:01:45.334Z,10.93
2022-08-21T01:04:14.116Z,7.68
2022-08-21T01:06:43.515Z,7.65
2022-08-21T01:09:11.571Z,7.85
2022-08-21T01:11:39.541Z,8.18
2022-08-21T01:14:13.973Z,10.23
2022-08-21T01:16:44.551Z,8.38
2022-08-21T01:19:14.016Z,9.73
2022-08-21T01:21:44.000Z,7.25
2022-08-21T01:24:13.315Z,7.90
2022-08-21T01:26:42.198Z,5.95
2022-08-21T01:29:17.446Z,10.05
2022-08-21T01:31:46.349Z,8.93
2022-08-21T01:34:14.697Z,10.25
2022-08-21T01:36:44.725Z,9.18
2022-08-21T01:39:13.007Z,7.70
2022-08-21T01:41:40.996Z,9.02
2022-08-21T01:44:09.408Z,12.45
2022-08-21T01:46:37.574Z,16.15
2022-08-21T01:49:06.111Z,13.60
2022-08-21T01:51:34.582Z,12.88
2022-08-21T01:54:04.290Z,7.65
2022-08-21T01:56:41.375Z,10.55
2022-08-21T01:59:09.869Z,9.07
2022-08-21T02:01:40.388Z,9.82
2022-08-21T02:06:36.888Z,13.25
2022-08-21T02:09:08.534Z,9.00
2022-08-21T02:11:37.494Z,7.03
2022-08-21T02:14:05.766Z,15.45
2022-08-21T02:16:34.368Z,11.77
2022-08-21T02:19:02.311Z,15.25
2022-08-21T02:21:30.266Z,14.32
2022-08-21T02:23:58.550Z,11.70
2022-08-21T02:26:27.860Z,14.55
2022-08-21T02:28:56.071Z,9.20
2022-08-21T02:31:24.124Z,12.02
2022-08-21T02:33:52.175Z,15.55
2022-08-21T02:36:20.423Z,8.73
2022-08-21T02:38:48.673Z,12.77
2022-08-21T02:41:20.173Z,13.27
2022-08-21T02:43:52.798Z,14.68
2022-08-21T02:46:23.183Z,14.18
2022-08-21T02:48:54.306Z,11.52
2022-08-21T02:51:23.695Z,7.45
2022-08-21T02:53:52.144Z,10.88
2022-08-21T02:56:22.304Z,9.10
2022-08-21T02:58:54.073Z,11.93
2022-08-21T03:01:22.921Z,8.35
2022-08-21T03:03:51.974Z,13.75
2022-08-21T03:06:21.558Z,9.25
2022-08-21T03:08:49.622Z,14.47
2022-08-21T03:11:18.596Z,12.07
2022-08-21T03:13:46.565Z,16.05
2022-08-21T03:16:15.935Z,12.43
2022-08-21T03:18:43.890Z,9.18
2022-08-21T03:21:11.885Z,9.23
2022-08-21T03:23:40.791Z,10.27
2022-08-21T03:26:10.017Z,16.48
2022-08-21T03:28:38.892Z,13.00
2022-08-21T03:31:07.438Z,10.07
2022-08-21T03:33:36.824Z,10.10
2022-08-21T03:36:07.729Z,12.98
2022-08-21T03:38:37.111Z,9.30
2022-08-21T03:41:06.020Z,11.07
2022-08-21T03:43:34.778Z,5.38
2022-08-21T03:46:03.296Z,12.07
2022-08-21T03:48:31.371Z,16.42
2022-08-21T03:51:00.880Z,10.65
2022-08-21T03:53:29.211Z,15.70
2022-08-21T03:55:57.244Z,6.60
2022-08-21T03:58:28.183Z,16.85
2022-08-21T04:00:59.752Z,15.63
2022-08-21T04:03:29.278Z,11.68
2022-08-21T04:05:57.352Z,7.93
2022-08-21T04:08:26.817Z,9.73
2022-08-21T04:10:57.926Z,8.68
2022-08-21T04:13:27.684Z,13.98
2022-08-21T04:15:55.745Z,13.43
2022-08-21T04:18:23.642Z,11.02
2022-08-21T04:20:54.830Z,10.90
2022-08-21T04:23:24.702Z,11.90
2022-08-21T04:25:55.296Z,9.98
2022-08-21T04:28:23.575Z,16.60
2022-08-21T04:30:57.612Z,13.90
2022-08-21T04:33:26.291Z,10.05
2022-08-21T04:35:54.214Z,10.55
2022-08-21T04:38:22.518Z,8.38
2022-08-21T04:40:52.117Z,14.07
2022-08-21T04:43:22.749Z,8.23
2022-08-21T04:45:51.543Z,10.95
2022-08-21T04:48:25.159Z,14.75
2022-08-21T04:50:56.275Z,15.52
2022-08-21T04:53:28.391Z,11.32
2022-08-21T04:55:58.498Z,14.90
2022-08-21T04:58:29.240Z,9.93
2022-08-21T05:00:59.539Z,13.10
2022-08-21T05:03:28.049Z,14.30
2022-08-21T05:05:56.768Z,16.83
2022-08-21T05:08:27.695Z,13.98
2022-08-21T05:11:00.281Z,12.57
2022-08-21T05:13:30.335Z,16.98
2022-08-21T05:15:58.376Z,15.67
2022-08-21T05:18:26.426Z,12.07
2022-08-21T05:20:54.422Z,10.88
2022-08-21T05:23:22.440Z,10.95
2022-08-21T05:25:51.313Z,14.77
2022-08-21T05:28:19.663Z,15.73
2022-08-21T05:30:49.716Z,12.35
2022-08-21T05:33:17.693Z,14.57
2022-08-21T05:35:46.112Z,12.70
2022-08-21T05:38:16.653Z,17.30
2022-08-21T05:40:46.910Z,10.80
2022-08-21T05:43:15.122Z,15.73
2022-08-21T05:45:44.596Z,15.27
2022-08-21T05:48:18.295Z,12.73
2022-08-21T05:50:47.573Z,13.30
2022-08-21T05:53:16.485Z,14.23
2022-08-21T05:55:46.522Z,10.65
2022-08-21T05:58:15.522Z,14.75
2022-08-21T06:00:43.667Z,20.00
2022-08-21T06:03:18.100Z,13.70
2022-08-21T06:05:46.706Z,12.38
2022-08-21T06:08:14.873Z,11.23
2022-08-21T06:10:43.497Z,16.70
2022-08-21T06:13:11.934Z,14.23
2022-08-21T06:15:40.071Z,12.43
2022-08-21T06:18:08.274Z,18.30
2022-08-21T06:20:37.758Z,9.60
2022-08-21T06:23:06.054Z,7.05
2022-08-21T06:25:34.109Z,14.43
2022-08-21T06:28:06.309Z,14.85
2022-08-21T06:30:35.165Z,12.55
2022-08-21T06:33:03.960Z,11.32
2022-08-21T06:35:32.722Z,11.10
2022-08-21T06:38:02.277Z,14.13
2022-08-21T06:40:34.946Z,12.60
2022-08-21T06:43:08.368Z,17.52
2022-08-21T06:45:37.362Z,16.23
2022-08-21T06:48:06.279Z,13.77
2022-08-21T06:50:34.295Z,13.07
2022-08-21T06:53:06.091Z,15.45
2022-08-21T06:55:34.736Z,13.07
2022-08-21T06:58:02.732Z,10.77
2022-08-21T07:00:31.066Z,7.57
2022-08-21T07:03:01.959Z,13.70
2022-08-21T07:05:31.888Z,12.75
2022-08-21T07:08:00.210Z,10.23
2022-08-21T07:10:29.755Z,9.18
2022-08-21T07:13:00.561Z,13.13
2022-08-21T07:15:30.776Z,12.40
2022-08-21T07:17:59.292Z,11.50
2022-08-21T07:20:28.132Z,9.13
2022-08-21T07:22:56.692Z,8.95
2022-08-21T07:25:24.735Z,9.90
2022-08-21T07:27:54.514Z,14.57
2022-08-21T07:30:23.291Z,9.57
2022-08-21T07:32:51.987Z,11.65
2022-08-21T07:35:21.035Z,10.20
2022-08-21T07:37:49.534Z,14.93
2022-08-21T07:40:19.238Z,8.40
2022-08-21T07:42:54.207Z,7.75
2022-08-21T07:45:25.909Z,17.48
2022-08-21T07:47:57.465Z,13.10
2022-08-21T07:50:26.650Z,6.97
2022-08-21T07:52:55.635Z,8.38
2022-08-21T07:55:24.939Z,8.57
2022-08-21T07:57:52.875Z,13.07
2022-08-21T08:00:26.992Z,14.20
2022-08-21T08:02:55.781Z,14.57
2022-08-21T08:05:26.372Z,8.50
2022-08-21T08:10:23.324Z,9.50
2022-08-21T08:12:52.310Z,12.93
2022-08-21T08:15:23.174Z,9.02
2022-08-21T08:17:53.020Z,8.20
2022-08-21T08:20:22.562Z,7.47
2022-08-21T08:22:51.859Z,13.90
2022-08-21T08:25:21.045Z,9.80
2022-08-21T08:27:49.337Z,13.25
2022-08-21T08:30:20.424Z,7.65
2022-08-21T08:32:49.587Z,11.93
2022-08-21T08:35:19.607Z,18.05
2022-08-21T08:37:52.606Z,14.32
2022-08-21T08:40:29.920Z,11.77
2022-08-21T08:42:58.342Z,15.18
2022-08-21T08:45:27.367Z,11.02
2022-08-21T08:48:00.013Z,6.60
2022-08-21T08:50:45.671Z,8.95
2022-08-21T08:53:19.519Z,6.95
2022-08-21T08:55:48.175Z,10.93
2022-08-21T08:58:22.515Z,13.73
2022-08-21T09:00:52.956Z,7.88
2022-08-21T09:05:57.345Z,7.28
2022-08-21T09:08:51.123Z,10.18
2022-08-21T09:11:31.627Z,8.55
2022-08-21T09:16:44.569Z,7.53
2022-08-21T09:19:30.105Z,8.75
2022-08-21T09:22:11.040Z,6.82
2022-08-21T09:24:51.989Z,13.02
2022-08-21T09:27:23.222Z,8.98
2022-08-21T09:29:55.321Z,9.05
2022-08-21T09:32:36.836Z,7.95
2022-08-21T09:35:10.765Z,6.57
2022-08-21T09:37:52.805Z,5.22
2022-08-21T09:40:31.660Z,6.53
2022-08-21T09:43:03.171Z,8.82
2022-08-21T09:45:33.921Z,8.75
2022-08-21T09:48:13.807Z,10.52
2022-08-21T09:50:42.881Z,5.45
2022-08-21T09:53:20.414Z,7.90
2022-08-21T09:56:11.928Z,7.32
2022-08-21T09:58:42.712Z,7.63
2022-08-21T10:01:16.165Z,5.55
2022-08-21T10:03:44.488Z,9.07
2022-08-21T10:06:21.808Z,4.70
2022-08-21T10:08:51.823Z,6.97
2022-08-21T10:11:29.566Z,7.40
2022-08-21T10:14:10.569Z,7.15
2022-08-21T10:16:50.808Z,7.53
2022-08-21T10:19:30.005Z,9.02
2022-08-21T10:22:13.880Z,6.40
2022-08-21T10:24:51.993Z,6.78
2022-08-21T10:27:29.180Z,5.78
2022-08-21T10:30:03.151Z,4.78
2022-08-21T10:32:48.220Z,5.72
2022-08-21T10:35:24.444Z,7.13
2022-08-21T10:38:07.947Z,9.43
2022-08-21T10:40:44.603Z,8.85
2022-08-21T10:43:32.062Z,8.73
2022-08-21T10:46:09.529Z,6.35
2022-08-21T10:48:39.755Z,5.47
2022-08-21T10:51:16.057Z,6.45
2022-08-21T10:53:52.831Z,7.90
2022-08-21T10:56:25.916Z,10.00
2022-08-21T10:59:06.606Z,8.55
2022-08-21T11:01:45.047Z,9.23
2022-08-21T11:04:22.109Z,7.07
2022-08-21T11:06:54.880Z,8.73
2022-08-21T11:09:27.328Z,5.10
2022-08-21T11:12:11.463Z,9.68
2022-08-21T11:14:50.445Z,7.95
2022-08-21T11:17:24.439Z,7.10
2022-08-21T11:19:57.016Z,15.77
2022-08-21T11:22:32.509Z,7.75
2022-08-21T11:25:06.285Z,7.63
2022-08-21T11:27:43.282Z,3.47
2022-08-21T11:30:15.047Z,3.65
2022-08-21T11:32:59.382Z,5.20
2022-08-21T11:35:35.843Z,10.80
2022-08-21T11:38:18.992Z,6.00
2022-08-21T11:40:58.656Z,7.65
2022-08-21T11:43:37.379Z,9.70
2022-08-21T11:46:21.634Z,4.50
2022-08-21T11:49:01.826Z,8.13
2022-08-21T11:51:35.718Z,4.35
2022-08-21T11:54:09.733Z,4.40
2022-08-21T11:56:43.364Z,6.78
2022-08-21T11:59:21.864Z,6.45
2022-08-21T12:01:52.225Z,6.57
2022-08-21T12:06:54.903Z,7.53
2022-08-21T12:09:35.472Z,5.78
2022-08-21T12:14:44.868Z,6.75
2022-08-21T12:17:21.935Z,4.70
2022-08-21T12:19:59.648Z,5.07
2022-08-21T12:22:39.536Z,4.15
2022-08-21T12:25:13.624Z,3.05
2022-08-21T12:27:49.584Z,6.53
2022-08-21T12:30:39.409Z,4.22
2022-08-21T12:33:23.383Z,4.10
2022-08-21T12:35:53.382Z,3.55
2022-08-21T12:38:25.983Z,6.00
2022-08-21T12:40:59.540Z,3.97
2022-08-21T12:43:32.195Z,4.25
2022-08-21T12:46:05.545Z,7.28
2022-08-21T12:48:41.047Z,3.75
2022-08-21T12:51:14.128Z,5.13
2022-08-21T12:53:46.446Z,3.42
2022-08-21T12:56:17.466Z,4.78
2022-08-21T12:58:49.248Z,3.88
2022-08-21T13:01:25.399Z,5.65
2022-08-21T13:04:00.249Z,4.03
2022-08-21T13:06:40.731Z,3.57
2022-08-21T13:09:13.228Z,3.10
2022-08-21T13:11:42.315Z,6.50
2022-08-21T13:14:25.487Z,2.95
2022-08-21T13:16:58.100Z,3.33
2022-08-21T13:19:27.949Z,3.40
2022-08-21T13:21:55.923Z,3.67
2022-08-21T13:24:43.548Z,5.22
2022-08-21T13:27:24.209Z,2.17
2022-08-21T13:30:05.109Z,3.90
2022-08-21T13:35:12.408Z,3.75
2022-08-21T13:37:42.587Z,3.05
2022-08-21T13:40:16.012Z,1.65
2022-08-21T13:42:45.671Z,3.17
2022-08-21T13:45:20.549Z,1.60
2022-08-21T13:47:50.370Z,2.80
2022-08-21T13:50:22.532Z,2.35
2022-08-21T13:52:58.091Z,3.00
2022-08-21T13:55:27.294Z,0.85
2022-08-21T13:58:02.851Z,6.57
2022-08-21T14:00:34.716Z,1.77
2022-08-21T14:03:07.960Z,1.48
2022-08-21T14:05:39.069Z,2.83
2022-08-21T14:08:12.674Z,1.92
2022-08-21T14:10:46.642Z,3.42
2022-08-21T14:13:31.451Z,2.95
2022-08-21T14:16:02.938Z,5.18
2022-08-21T14:18:32.337Z,2.22
2022-08-21T14:23:14.732Z,3.65
2022-08-21T14:25:45.610Z,4.43
2022-08-21T14:28:28.198Z,3.60
2022-08-21T14:30:58.427Z,3.22
2022-08-21T14:33:29.908Z,5.45
2022-08-21T14:35:57.981Z,3.47
2022-08-21T14:38:29.654Z,3.30
2022-08-21T14:41:01.351Z,4.57
2022-08-21T14:43:30.591Z,4.43
2022-08-21T14:45:58.976Z,5.22
2022-08-21T14:48:26.890Z,8.27
2022-08-21T14:50:59.770Z,3.65
2022-08-21T14:53:29.774Z,2.78
2022-08-21T14:56:09.583Z,2.47
2022-08-21T14:58:41.386Z,4.25
2022-08-21T15:01:10.386Z,4.40
2022-08-21T15:03:38.758Z,3.58
2022-08-21T15:06:08.127Z,4.22
2022-08-21T15:08:37.815Z,3.72
2022-08-21T15:11:17.442Z,3.00
2022-08-21T15:13:48.686Z,1.98
2022-08-21T15:16:16.656Z,3.75
2022-08-21T15:18:44.686Z,1.85
2022-08-21T15:21:12.721Z,2.75
2022-08-21T15:23:43.730Z,2.40
2022-08-21T15:26:12.389Z,3.40
2022-08-21T15:28:40.791Z,2.70
2022-08-21T15:31:09.278Z,2.88
2022-08-21T15:33:37.271Z,2.15
2022-08-21T15:36:05.530Z,3.42
2022-08-21T15:38:33.527Z,4.53
2022-08-21T15:41:04.196Z,1.27
2022-08-21T15:43:44.661Z,2.65
2022-08-21T15:48:42.333Z,1.50
2022-08-21T15:51:11.380Z,3.03
2022-08-21T15:53:41.019Z,3.42
2022-08-21T15:56:24.082Z,1.30
2022-08-21T15:58:54.776Z,3.78
2022-08-21T16:01:23.635Z,0.93
2022-08-21T16:03:54.947Z,1.05
2022-08-21T16:06:37.894Z,2.20
2022-08-21T16:09:11.461Z,3.60
2022-08-21T16:11:41.031Z,2.53
2022-08-21T16:14:08.967Z,3.93
2022-08-21T16:16:37.882Z,4.63
2022-08-21T16:19:07.018Z,2.90
2022-08-21T16:21:35.014Z,2.92
2022-08-21T16:24:03.064Z,3.80
2022-08-21T16:26:33.979Z,2.30
2022-08-21T16:29:04.383Z,3.80
2022-08-21T16:31:33.517Z,1.42
2022-08-21T16:34:02.650Z,2.20
2022-08-21T16:36:30.851Z,3.42
2022-08-21T16:39:03.423Z,3.17
2022-08-21T16:41:34.905Z,2.92
2022-08-21T16:44:06.658Z,5.60
2022-08-21T16:46:37.755Z,2.40
2022-08-21T16:49:08.041Z,3.38
2022-08-21T16:51:38.729Z,3.22
2022-08-21T16:54:07.026Z,1.88
2022-08-21T16:56:39.498Z,4.47
2022-08-21T16:59:09.275Z,6.93
2022-08-21T17:01:38.316Z,1.88
2022-08-21T17:04:07.248Z,4.22
2022-08-21T17:06:35.609Z,2.22
2022-08-21T17:09:03.598Z,4.55
2022-08-21T17:11:37.874Z,3.67
2022-08-21T17:14:13.162Z,3.78
2022-08-21T17:16:43.005Z,2.78
2022-08-21T17:19:13.072Z,1.13
2022-08-21T17:21:41.173Z,6.35
2022-08-21T17:24:09.484Z,2.47
2022-08-21T17:26:38.306Z,5.10
2022-08-21T17:29:09.892Z,1.38
2022-08-21T17:31:41.024Z,4.28
2022-08-21T17:34:10.188Z,2.28
2022-08-21T17:36:38.554Z,3.42
2022-08-21T17:39:06.619Z,1.80
2022-08-21T17:41:35.510Z,1.88
2022-08-21T17:44:09.516Z,3.90
2022-08-21T17:46:40.044Z,2.45
2022-08-21T17:51:36.550Z,1.65
2022-08-21T17:54:04.663Z,2.90
2022-08-21T17:56:36.378Z,3.95
2022-08-21T17:59:06.824Z,2.65
2022-08-21T18:04:05.959Z,2.47
2022-08-21T18:06:33.861Z,3.97
2022-08-21T18:09:01.826Z,2.58
2022-08-21T18:11:31.757Z,4.65
2022-08-21T18:14:06.725Z,3.47
2022-08-21T18:16:37.748Z,2.90
2022-08-21T18:19:11.966Z,2.40
2022-08-21T18:21:39.944Z,2.78
2022-08-21T18:24:07.986Z,3.33
2022-08-21T18:26:38.128Z,1.70
2022-08-21T18:29:08.954Z,1.83
2022-08-21T18:31:40.184Z,3.33
2022-08-21T18:34:19.561Z,3.17
2022-08-21T18:36:48.364Z,2.22
2022-08-21T18:39:35.601Z,5.35
2022-08-21T18:42:10.118Z,2.60
2022-08-21T18:44:38.935Z,4.63
2022-08-21T18:47:11.653Z,2.55
2022-08-21T18:49:42.076Z,2.35
2022-08-21T18:52:10.018Z,4.85
2022-08-21T18:54:45.850Z,3.78
2022-08-21T18:57:17.721Z,3.35
2022-08-21T18:59:46.251Z,2.35
2022-08-21T19:02:14.342Z,2.22
2022-08-21T19:04:45.097Z,3.70
2022-08-21T19:07:14.751Z,3.75
2022-08-21T19:09:52.751Z,3.13
2022-08-21T19:12:31.094Z,4.95
2022-08-21T19:15:00.135Z,2.28
2022-08-21T19:17:31.054Z,1.98
2022-08-21T19:20:07.321Z,5.47
2022-08-21T19:22:53.553Z,4.53
2022-08-21T19:25:33.071Z,2.28
2022-08-21T19:28:03.148Z,3.42
2022-08-21T19:30:31.988Z,7.30
2022-08-21T19:33:00.209Z,3.22
2022-08-21T19:35:29.683Z,2.85
2022-08-21T19:37:57.599Z,3.25
2022-08-21T19:40:25.898Z,4.60
2022-08-21T19:42:54.021Z,2.83
2022-08-21T19:45:22.172Z,3.58
2022-08-21T19:50:46.532Z,4.30
2022-08-21T19:53:14.503Z,3.15
2022-08-21T19:55:44.651Z,3.33
2022-08-21T19:58:24.975Z,4.45
2022-08-21T20:00:52.905Z,3.97
2022-08-21T20:03:21.218Z,2.50
2022-08-21T20:05:50.714Z,4.18
2022-08-21T20:08:21.926Z,5.05
2022-08-21T20:10:51.987Z,3.30
2022-08-21T20:13:22.212Z,3.58
2022-08-21T20:15:51.275Z,2.45
2022-08-21T20:18:19.966Z,8.60
2022-08-21T20:20:56.398Z,4.03
2022-08-21T20:23:30.031Z,4.63
2022-08-21T20:25:58.954Z,3.78
2022-08-21T20:28:27.326Z,2.88
2022-08-21T20:30:57.107Z,5.40
2022-08-21T20:33:25.121Z,3.58
2022-08-21T20:35:53.077Z,4.28
2022-08-21T20:38:23.895Z,6.68
2022-08-21T20:40:54.143Z,6.05
2022-08-21T20:43:24.167Z,3.45
2022-08-21T20:45:52.506Z,8.27
2022-08-21T20:48:26.890Z,3.55
2022-08-21T20:51:02.783Z,4.18
2022-08-21T20:53:43.111Z,4.63
2022-08-21T20:56:16.375Z,3.95
2022-08-21T20:58:54.486Z,3.90
2022-08-21T21:01:24.559Z,6.07
2022-08-21T21:03:58.919Z,3.10
2022-08-21T21:06:29.515Z,8.00
2022-08-21T21:09:07.084Z,3.88
2022-08-21T21:11:38.477Z,5.03
2022-08-21T21:14:11.919Z,4.10
2022-08-21T21:16:45.889Z,3.10
2022-08-21T21:19:25.973Z,4.45
2022-08-21T21:22:00.135Z,3.15
2022-08-21T21:24:36.754Z,4.90
2022-08-21T21:27:11.559Z,2.92
2022-08-21T21:29:43.247Z,2.58
2022-08-21T21:32:18.242Z,5.45
2022-08-21T21:34:51.182Z,5.45
2022-08-21T21:37:26.284Z,6.65
2022-08-21T21:40:05.239Z,2.35
2022-08-21T21:42:42.723Z,6.15
2022-08-21T21:45:21.307Z,2.78
2022-08-21T21:48:04.843Z,3.88
2022-08-21T21:50:52.478Z,3.35
2022-08-21T21:53:37.724Z,4.28
2022-08-21T21:56:23.830Z,3.03
2022-08-21T21:59:11.932Z,5.53
2022-08-21T22:01:46.051Z,5.38
2022-08-21T22:04:21.944Z,3.72
2022-08-21T22:06:57.453Z,7.22
2022-08-21T22:09:39.371Z,6.13
2022-08-21T22:12:32.838Z,9.27
2022-08-21T22:15:00.907Z,3.85
2022-08-21T22:17:46.623Z,3.45
2022-08-21T22:20:21.007Z,5.43
2022-08-21T22:22:50.011Z,2.08
2022-08-21T22:25:23.824Z,4.43
2022-08-21T22:28:01.371Z,4.03
2022-08-21T22:30:45.259Z,3.10
2022-08-21T22:33:19.957Z,6.18
2022-08-21T22:35:51.633Z,11.02
2022-08-21T22:38:33.389Z,7.32
2022-08-21T22:41:13.683Z,3.92
2022-08-21T22:43:55.068Z,6.10
2022-08-21T22:46:32.855Z,3.10
2022-08-21T22:49:05.476Z,4.50
2022-08-21T22:51:40.731Z,3.72
2022-08-21T22:54:16.977Z,3.90
2022-08-21T22:56:59.808Z,4.43
2022-08-21T22:59:31.127Z,5.50
2022-08-21T23:02:03.643Z,4.88
2022-08-21T23:04:33.664Z,5.38
2022-08-21T23:07:05.974Z,4.18
2022-08-21T23:09:37.029Z,3.50
2022-08-21T23:12:21.332Z,8.50
2022-08-21T23:14:54.935Z,6.00
2022-08-21T23:17:36.323Z,5.88
2022-08-21T23:20:13.880Z,3.72
2022-08-21T23:22:54.537Z,6.43
2022-08-21T23:25:57.579Z,5.00
2022-08-21T23:28:40.019Z,4.38
2022-08-21T23:31:22.797Z,4.28
2022-08-21T23:34:06.176Z,8.20
2022-08-21T23:37:02.507Z,8.05
2022-08-21T23:39:46.495Z,3.08
2022-08-21T23:42:42.593Z,6.68
2022-08-21T23:45:24.384Z,7.13
2022-08-21T23:48:21.552Z,5.82
2022-08-21T23:51:02.047Z,6.38
2022-08-21T23:53:38.688Z,6.20
2022-08-21T23:56:21.499Z,3.53
2022-08-21T23:58:56.321Z,4.15
